Time;durP1;ratioP1;P1;durP2;ratioP2;P2;SDS_P1;SDS_P2;PMS_P1;PMS_P2;Temp;Humidity;BMP_temperature;BMP_pressure;BME280_temperature;BME280_humidity;BME280_pressure;Samples;Min_cycle;Max_cycle;Signal;HPM_P1;HPM_P2
2022/04/07 00:01:44;;;;;;;27.20;11.03;;;6.90;99.90;;;;;;4426303;28;656343;-70
2022/04/07 00:04:32;;;;;;;22.13;9.77;;;6.90;99.90;;;;;;4394487;28;657519;-71
2022/04/07 00:07:19;;;;;;;28.70;10.10;;;6.90;99.90;;;;;;4424418;28;656441;-70
2022/04/07 00:10:07;;;;;;;22.60;9.83;;;7.00;99.90;;;;;;4394469;28;657844;-71
2022/04/07 00:12:56;;;;;;;24.87;9.73;;;6.90;99.90;;;;;;4419479;28;656600;-70
2022/04/07 00:15:43;;;;;;;21.90;9.60;;;6.90;99.90;;;;;;4392674;28;657077;-70
2022/04/07 00:18:31;;;;;;;22.70;9.17;;;6.90;99.90;;;;;;4393921;28;656454;-71
2022/04/07 00:21:24;;;;;;;23.70;9.00;;;6.90;99.90;;;;;;4420806;28;657660;-71
2022/04/07 00:24:12;;;;;;;23.47;9.73;;;6.90;99.90;;;;;;4373045;28;657017;-70
2022/04/07 00:26:59;;;;;;;21.57;8.97;;;6.80;99.90;;;;;;4422798;28;656550;-71
2022/04/07 00:29:48;;;;;;;16.37;7.90;;;6.80;99.90;;;;;;4399767;28;657051;-71
2022/04/07 00:32:41;;;;;;;19.53;7.53;;;6.90;99.90;;;;;;4401682;28;656762;-70
2022/04/07 00:35:29;;;;;;;18.63;7.93;;;7.00;99.90;;;;;;4395417;28;656366;-70
2022/04/07 00:38:16;;;;;;;16.87;7.87;;;7.00;99.90;;;;;;4408852;28;656549;-71
2022/04/07 00:41:03;;;;;;;16.47;7.73;;;7.10;99.90;;;;;;4424141;28;657860;-70
2022/04/07 00:43:51;;;;;;;16.10;8.10;;;7.00;99.90;;;;;;4396849;28;656978;-70
2022/04/07 00:46:40;;;;;;;16.33;7.63;;;7.20;99.90;;;;;;4419453;28;657677;-71
2022/04/07 00:49:27;;;;;;;16.37;7.20;;;7.30;99.90;;;;;;4397183;28;657050;-71
2022/04/07 00:52:14;;;;;;;15.27;7.70;;;7.30;99.90;;;;;;4425030;28;658257;-71
2022/04/07 00:55:02;;;;;;;13.43;6.87;;;7.40;99.90;;;;;;4400941;28;656345;-70
2022/04/07 00:57:49;;;;;;;13.37;6.60;;;7.50;99.90;;;;;;4423750;28;656414;-70
2022/04/07 01:00:36;;;;;;;14.13;6.40;;;7.70;99.90;;;;;;4399863;28;656513;-70
2022/04/07 01:03:25;;;;;;;11.47;5.63;;;7.70;99.90;;;;;;4421812;28;657008;-70
2022/04/07 01:06:13;;;;;;;12.80;6.57;;;7.80;99.90;;;;;;4397595;28;657360;-71
2022/04/07 01:09:00;;;;;;;15.23;6.57;;;8.30;99.90;;;;;;4412959;28;656856;-71
2022/04/07 01:11:48;;;;;;;12.73;6.53;;;8.20;99.90;;;;;;4417089;28;657692;-71
2022/04/07 01:14:35;;;;;;;15.07;6.27;;;8.20;99.90;;;;;;4406898;28;657347;-71
2022/04/07 01:17:23;;;;;;;13.50;7.03;;;8.40;99.90;;;;;;4416603;28;657880;-71
2022/04/07 01:20:13;;;;;;;14.80;6.30;;;8.40;99.90;;;;;;4396234;28;657374;-70
2022/04/07 01:23:01;;;;;;;13.03;6.30;;;8.20;99.90;;;;;;4400898;28;657753;-70
2022/04/07 01:25:50;;;;;;;12.03;6.10;;;8.20;99.90;;;;;;4428642;28;657758;-70
2022/04/07 01:28:37;;;;;;;14.10;7.50;;;8.20;99.90;;;;;;4398439;28;657645;-71
2022/04/07 01:31:25;;;;;;;13.83;7.53;;;8.10;99.90;;;;;;4411030;28;656481;-70
2022/04/07 01:34:14;;;;;;;14.87;7.50;;;8.30;99.90;;;;;;4421943;28;657605;-70
2022/04/07 01:37:01;;;;;;;14.20;7.60;;;8.30;99.90;;;;;;4394966;28;656578;-71
2022/04/07 01:39:48;;;;;;;18.80;8.73;;;8.70;99.90;;;;;;4420046;28;657601;-70
2022/04/07 01:42:38;;;;;;;18.40;8.60;;;8.80;99.90;;;;;;4403517;28;656526;-71
2022/04/07 01:45:25;;;;;;;17.67;7.60;;;8.70;99.90;;;;;;4389105;28;656518;-70
2022/04/07 01:48:13;;;;;;;15.37;7.87;;;8.80;99.90;;;;;;4404064;28;657967;-70
2022/04/07 01:51:00;;;;;;;15.90;8.00;;;8.80;99.90;;;;;;4391045;28;657451;-71
2022/04/07 01:53:48;;;;;;;17.77;9.07;;;8.90;99.90;;;;;;4403843;28;658229;-71
2022/04/07 01:56:35;;;;;;;15.27;8.47;;;8.90;99.90;;;;;;4390403;28;656930;-70
2022/04/07 01:59:25;;;;;;;17.47;7.93;;;8.90;99.90;;;;;;4397456;28;658023;-71
2022/04/07 02:02:13;;;;;;;20.37;7.83;;;9.00;99.90;;;;;;4379750;28;657258;-70
2022/04/07 02:05:03;;;;;;;17.13;8.70;;;8.80;99.90;;;;;;4386596;28;656829;-70
2022/04/07 02:07:50;;;;;;;21.87;8.60;;;8.90;99.90;;;;;;4378919;28;657210;-70
2022/04/07 02:10:38;;;;;;;21.27;8.50;;;9.00;99.90;;;;;;4397345;28;658230;-71
2022/04/07 02:13:25;;;;;;;23.13;8.87;;;8.80;99.90;;;;;;4390441;28;656708;-70
2022/04/07 02:16:14;;;;;;;19.90;9.57;;;8.80;99.90;;;;;;4404536;28;657522;-71
2022/04/07 02:19:01;;;;;;;20.15;10.23;;;8.80;99.90;;;;;;4375174;28;656414;-71
2022/04/07 02:21:49;;;;;;;20.27;10.90;;;9.00;99.90;;;;;;4396234;28;658624;-71
2022/04/07 02:24:37;;;;;;;21.90;11.10;;;9.50;99.90;;;;;;4373177;28;657860;-71
2022/04/07 02:27:25;;;;;;;26.50;9.57;;;9.40;99.90;;;;;;4388451;28;657800;-70
2022/04/07 02:30:14;;;;;;;18.17;9.00;;;9.50;99.90;;;;;;4398257;28;657792;-71
2022/04/07 02:33:02;;;;;;;17.77;9.97;;;9.40;99.90;;;;;;4384439;28;657842;-70
2022/04/07 02:35:50;;;;;;;17.63;9.57;;;9.50;99.90;;;;;;4387800;28;656662;-70
2022/04/07 02:38:38;;;;;;;20.47;10.03;;;9.70;99.90;;;;;;4384271;28;657840;-70
2022/04/07 02:41:25;;;;;;;20.87;10.00;;;9.80;99.90;;;;;;4371564;28;657966;-70
2022/04/07 02:44:13;;;;;;;22.33;9.87;;;10.00;99.90;;;;;;4394673;28;658772;-70
2022/04/07 02:47:00;;;;;;;21.87;10.43;;;9.90;99.90;;;;;;4394591;28;658645;-70
2022/04/07 02:49:49;;;;;;;22.13;9.77;;;9.90;99.90;;;;;;4405686;28;659019;-70
2022/04/07 02:52:36;;;;;;;20.77;9.98;;;10.00;99.90;;;;;;4391753;28;657116;-70
2022/04/07 02:55:24;;;;;;;24.73;11.00;;;10.00;99.90;;;;;;4417411;28;657872;-70
2022/04/07 02:58:11;;;;;;;21.70;11.00;;;10.10;99.90;;;;;;4396232;28;658443;-71
2022/04/07 03:00:59;;;;;;;26.83;10.97;;;9.90;99.90;;;;;;4413779;28;659299;-71
2022/04/07 03:03:48;;;;;;;20.37;10.87;;;9.80;99.90;;;;;;4397905;28;658104;-70
2022/04/07 03:06:37;;;;;;;20.67;10.90;;;9.70;99.90;;;;;;4386602;28;657484;-71
2022/04/07 03:09:24;;;;;;;21.80;11.17;;;9.60;99.90;;;;;;4414182;28;657908;-70
2022/04/07 03:12:13;;;;;;;22.57;10.77;;;9.50;99.90;;;;;;4391523;28;658528;-71
2022/04/07 03:15:00;;;;;;;24.33;11.20;;;9.50;99.90;;;;;;4402503;28;657825;-70
2022/04/07 03:17:48;;;;;;;22.07;10.73;;;9.70;99.90;;;;;;4412633;28;659072;-71
2022/04/07 03:20:35;;;;;;;22.77;11.57;;;9.60;99.90;;;;;;4401960;28;658875;-70
2022/04/07 03:23:24;;;;;;;21.10;11.37;;;9.60;99.90;;;;;;4415124;28;658028;-70
2022/04/07 03:26:11;;;;;;;18.10;11.20;;;9.60;99.90;;;;;;4393666;28;658467;-71
2022/04/07 03:28:59;;;;;;;26.27;12.33;;;9.60;99.90;;;;;;4414215;28;657472;-70
2022/04/07 03:31:46;;;;;;;24.83;13.40;;;9.50;99.90;;;;;;4384611;28;657871;-70
2022/04/07 03:34:34;;;;;;;22.70;13.70;;;9.50;99.90;;;;;;4416407;28;659805;-70
2022/04/07 03:37:21;;;;;;;21.43;12.63;;;9.50;99.90;;;;;;4397985;28;657883;-71
2022/04/07 03:40:12;;;;;;;23.53;14.13;;;9.50;99.90;;;;;;4415589;28;657962;-70
2022/04/07 03:42:59;;;;;;;19.03;12.70;;;9.40;99.90;;;;;;4388589;28;658288;-70
2022/04/07 03:45:46;;;;;;;26.07;14.67;;;9.10;99.90;;;;;;4390037;28;657794;-71
2022/04/07 03:48:34;;;;;;;23.23;12.87;;;9.00;99.90;;;;;;4412789;28;657969;-71
2022/04/07 03:51:21;;;;;;;24.87;13.00;;;9.00;99.90;;;;;;4384605;28;658135;-70
2022/04/07 03:54:09;;;;;;;23.73;13.47;;;8.80;99.90;;;;;;4414630;28;658317;-70
2022/04/07 03:56:57;;;;;;;22.40;13.10;;;8.80;99.90;;;;;;4394774;28;658014;-71
2022/04/07 03:59:45;;;;;;;27.93;14.97;;;8.70;99.90;;;;;;4412368;28;657478;-71
2022/04/07 04:02:32;;;;;;;31.67;14.10;;;9.00;99.90;;;;;;4389713;28;658141;-70
2022/04/07 04:05:19;;;;;;;26.90;14.73;;;8.70;99.90;;;;;;4413462;28;657928;-71
2022/04/07 04:08:08;;;;;;;19.93;11.93;;;8.60;99.90;;;;;;4396167;28;658638;-70
2022/04/07 04:10:55;;;;;;;25.83;14.00;;;8.40;99.90;;;;;;4400092;28;657476;-70
2022/04/07 04:13:45;;;;;;;24.67;13.80;;;8.50;99.90;;;;;;4418197;28;659279;-71
2022/04/07 04:16:33;;;;;;;25.53;13.20;;;8.40;99.90;;;;;;4388144;28;658198;-71
2022/04/07 04:19:20;;;;;;;27.50;14.10;;;8.50;99.90;;;;;;4410887;28;657520;-70
2022/04/07 04:22:08;;;;;;;23.57;14.07;;;8.60;99.90;;;;;;4414538;28;658558;-71
2022/04/07 04:24:55;;;;;;;20.07;11.63;;;8.70;99.90;;;;;;4399483;28;658166;-70
2022/04/07 04:27:43;;;;;;;23.13;12.73;;;8.70;99.90;;;;;;4416106;28;658719;-70
2022/04/07 04:30:32;;;;;;;24.03;14.17;;;8.90;99.90;;;;;;4407214;28;657875;-69
2022/04/07 04:33:19;;;;;;;22.43;13.30;;;8.80;99.90;;;;;;4418837;28;657209;-70
2022/04/07 04:36:07;;;;;;;22.25;13.35;;;8.80;99.90;;;;;;4395944;28;658215;-70
2022/04/07 04:38:55;;;;;;;21.77;11.63;;;8.70;99.90;;;;;;4419502;28;657879;-70
2022/04/07 04:41:42;;;;;;;17.70;10.13;;;8.60;99.90;;;;;;4391167;28;658686;-69
2022/04/07 04:44:29;;;;;;;17.43;8.07;;;8.60;99.90;;;;;;4415477;28;658174;-70
2022/04/07 04:47:19;;;;;;;14.93;7.77;;;8.90;99.90;;;;;;4398623;28;656356;-70
2022/04/07 04:50:07;;;;;;;12.67;7.93;;;9.10;99.90;;;;;;4389541;28;656700;-70
2022/04/07 04:52:54;;;;;;;15.40;7.97;;;9.30;99.90;;;;;;4418757;28;656373;-70
2022/04/07 04:55:42;;;;;;;13.50;7.40;;;9.20;99.90;;;;;;4397401;28;656843;-70
2022/04/07 04:58:29;;;;;;;10.93;6.68;;;9.30;99.90;;;;;;4407730;28;656480;-70
2022/04/07 05:01:17;;;;;;;12.80;7.10;;;9.50;99.90;;;;;;4393678;28;656286;-70
2022/04/07 05:04:06;;;;;;;15.93;7.60;;;9.90;99.90;;;;;;4421896;28;656840;-69
2022/04/07 05:06:54;;;;;;;13.30;8.20;;;9.90;99.90;;;;;;4392014;28;656757;-70
2022/04/07 05:09:41;;;;;;;14.30;8.90;;;10.00;99.90;;;;;;4395670;28;656360;-69
2022/04/07 05:12:28;;;;;;;14.83;8.37;;;9.90;99.90;;;;;;4417388;28;658176;-70
2022/04/07 05:15:16;;;;;;;13.30;8.57;;;10.00;99.90;;;;;;4400633;28;657678;-70
2022/04/07 05:18:03;;;;;;;13.32;7.80;;;9.90;99.90;;;;;;4405491;28;658212;-70
2022/04/07 05:20:52;;;;;;;14.67;8.77;;;9.90;99.90;;;;;;4393043;28;657766;-70
2022/04/07 05:23:39;;;;;;;14.20;8.07;;;9.90;99.90;;;;;;4417590;28;657014;-70
2022/04/07 05:26:26;;;;;;;13.07;8.30;;;9.90;99.90;;;;;;4380567;28;656697;-70
2022/04/07 05:29:14;;;;;;;20.30;8.67;;;9.80;99.90;;;;;;4408798;28;657150;-69
2022/04/07 05:32:01;;;;;;;19.80;8.13;;;9.80;99.90;;;;;;4376200;28;656595;-70
2022/04/07 05:34:48;;;;;;;15.53;8.13;;;9.90;99.90;;;;;;4410624;28;657400;-70
2022/04/07 05:37:37;;;;;;;15.90;8.00;;;9.90;99.90;;;;;;4395270;28;656496;-70
2022/04/07 05:40:25;;;;;;;13.93;8.00;;;9.70;99.90;;;;;;4402385;28;656529;-70
2022/04/07 05:43:12;;;;;;;16.17;7.97;;;9.60;99.90;;;;;;4388724;28;656755;-70
2022/04/07 05:45:59;;;;;;;15.13;8.37;;;9.70;99.90;;;;;;4407035;28;656521;-70
2022/04/07 05:48:47;;;;;;;14.50;8.03;;;9.90;99.90;;;;;;4381778;28;656754;-70
2022/04/07 05:51:34;;;;;;;11.33;7.80;;;9.70;99.90;;;;;;4403801;28;656459;-70
2022/04/07 05:54:23;;;;;;;17.67;8.50;;;9.60;99.90;;;;;;4383040;28;656669;-70
2022/04/07 05:57:10;;;;;;;16.63;7.87;;;9.60;99.90;;;;;;4387223;28;657240;-70
2022/04/07 06:00:04;;;;;;;14.80;8.77;;;9.70;99.90;;;;;;4401494;28;657996;-70
2022/04/07 06:02:51;;;;;;;15.18;7.35;;;9.90;99.90;;;;;;4378272;28;656766;-70
2022/04/07 06:05:38;;;;;;;10.40;6.13;;;9.60;99.90;;;;;;4412343;28;659076;-70
2022/04/07 06:08:26;;;;;;;10.77;6.37;;;9.90;99.90;;;;;;4381260;28;656985;-70
2022/04/07 06:11:15;;;;;;;9.43;5.40;;;10.30;99.90;;;;;;4407026;28;657027;-70
2022/04/07 06:14:02;;;;;;;6.97;4.27;;;10.60;99.90;;;;;;4382416;28;657763;-69
2022/04/07 06:16:50;;;;;;;8.40;4.50;;;11.20;99.90;;;;;;4405560;28;656328;-69
2022/04/07 06:19:37;;;;;;;7.77;3.53;;;11.30;99.90;;;;;;4390660;28;657503;-69
2022/04/07 06:22:24;;;;;;;5.78;2.60;;;11.40;99.90;;;;;;4417415;28;656269;-69
2022/04/07 06:25:12;;;;;;;7.70;4.30;;;11.50;99.90;;;;;;4398243;28;656820;-69
2022/04/07 06:28:02;;;;;;;8.53;3.90;;;11.70;99.90;;;;;;4414291;28;657029;-69
2022/04/07 06:30:51;;;;;;;7.10;3.07;;;11.70;99.90;;;;;;4389885;28;656999;-69
2022/04/07 06:33:39;;;;;;;4.33;2.33;;;11.90;99.90;;;;;;4385237;28;656786;-69
2022/04/07 06:36:26;;;;;;;4.68;2.53;;;12.00;99.90;;;;;;4393665;28;657133;-69
2022/04/07 06:39:14;;;;;;;5.90;2.23;;;12.10;99.90;;;;;;4419813;28;656353;-69
2022/04/07 06:42:01;;;;;;;6.57;2.70;;;12.00;99.90;;;;;;4387337;28;656846;-69
2022/04/07 06:44:51;;;;;;;6.00;2.27;;;12.10;99.90;;;;;;4407305;28;657691;-69
2022/04/07 06:47:38;;;;;;;3.83;1.67;;;12.10;97.90;;;;;;4375852;28;657519;-69
2022/04/07 06:50:26;;;;;;;5.33;2.50;;;12.20;96.70;;;;;;4384134;28;656738;-69
2022/04/07 06:53:13;;;;;;;4.17;1.80;;;12.30;97.00;;;;;;4403003;28;656735;-69
2022/04/07 06:56:01;;;;;;;4.00;2.17;;;12.40;95.10;;;;;;4383863;28;656378;-69
2022/04/07 06:58:48;;;;;;;6.60;2.60;;;12.40;96.30;;;;;;4410418;28;656544;-69
2022/04/07 07:01:37;;;;;;;4.80;2.20;;;12.50;93.20;;;;;;4396834;28;656447;-69
2022/04/07 07:04:24;;;;;;;3.20;1.30;;;12.40;92.20;;;;;;4418061;28;657086;-69
2022/04/07 07:07:12;;;;;;;3.20;1.90;;;12.20;91.50;;;;;;4392234;28;656627;-69
2022/04/07 07:09:59;;;;;;;2.40;1.53;;;12.20;92.20;;;;;;4412554;28;656817;-69
2022/04/07 07:12:46;;;;;;;3.80;2.13;;;12.30;91.40;;;;;;4395381;28;657080;-69
2022/04/07 07:15:34;;;;;;;3.80;2.00;;;12.40;90.10;;;;;;4413546;28;657708;-69
2022/04/07 07:18:22;;;;;;;3.90;1.50;;;12.60;91.20;;;;;;4396949;28;657495;-69
2022/04/07 07:21:11;;;;;;;5.00;2.40;;;12.70;89.30;;;;;;4413541;28;656458;-69
2022/04/07 07:23:59;;;;;;;5.37;2.53;;;12.70;90.80;;;;;;4415785;28;656989;-69
2022/04/07 07:26:46;;;;;;;4.20;1.67;;;12.90;90.30;;;;;;4392255;28;656359;-69
2022/04/07 07:29:33;;;;;;;4.20;2.20;;;12.90;86.70;;;;;;4411046;28;657574;-70
2022/04/07 07:32:21;;;;;;;3.57;1.60;;;13.10;87.20;;;;;;4389412;28;656785;-69
2022/04/07 07:35:10;;;;;;;5.97;2.40;;;13.10;83.90;;;;;;4409539;28;658359;-70
2022/04/07 07:37:59;;;;;;;4.97;1.83;;;13.00;86.70;;;;;;4389883;28;656654;-69
2022/04/07 07:40:46;;;;;;;7.70;2.33;;;13.00;87.20;;;;;;4392368;28;656591;-69
2022/04/07 07:43:33;;;;;;;3.63;1.23;;;13.20;84.80;;;;;;4417876;28;657272;-69
2022/04/07 07:46:21;;;;;;;6.50;2.70;;;13.00;86.30;;;;;;4398466;28;656908;-69
2022/04/07 07:49:08;;;;;;;5.83;2.63;;;13.40;84.80;;;;;;4411064;28;657570;-69
2022/04/07 07:51:57;;;;;;;5.57;2.70;;;13.70;85.20;;;;;;4396690;28;657566;-69
2022/04/07 07:54:44;;;;;;;4.53;2.53;;;13.80;82.60;;;;;;4410102;28;657268;-69
2022/04/07 07:57:32;;;;;;;5.60;2.23;;;14.00;83.00;;;;;;4395738;28;657266;-70
2022/04/07 08:00:19;;;;;;;5.37;2.53;;;13.80;81.40;;;;;;4417575;28;656775;-69
2022/04/07 08:03:07;;;;;;;4.80;1.93;;;14.00;80.00;;;;;;4391440;28;656678;-70
2022/04/07 08:05:54;;;;;;;5.63;2.33;;;14.10;77.10;;;;;;4421986;28;657423;-70
2022/04/07 08:08:44;;;;;;;5.50;2.40;;;14.50;78.30;;;;;;4394307;28;656235;-69
2022/04/07 08:11:31;;;;;;;1.90;1.30;;;14.90;75.20;;;;;;4386170;28;656844;-69
2022/04/07 08:14:36;;;;;;;2.63;1.83;;;14.20;73.10;;;;;;4406264;28;657519;-69
2022/04/07 08:17:24;;;;;;;1.30;0.70;;;14.00;73.40;;;;;;4387464;28;656645;-70
2022/04/07 08:20:12;;;;;;;3.60;1.65;;;14.00;74.10;;;;;;4385972;28;657334;-69
2022/04/07 08:23:00;;;;;;;3.87;1.60;;;13.90;74.10;;;;;;4408347;28;656320;-70
2022/04/07 08:25:49;;;;;;;2.33;1.60;;;14.00;72.50;;;;;;4410627;28;658043;-69
2022/04/07 08:28:37;;;;;;;3.57;1.13;;;14.50;71.50;;;;;;4392075;28;656559;-70
2022/04/07 08:31:25;;;;;;;1.30;1.00;;;14.50;70.50;;;;;;4410675;28;656609;-70
2022/04/07 08:34:12;;;;;;;1.77;0.77;;;14.90;68.80;;;;;;4391601;28;657215;-70
2022/04/07 08:37:00;;;;;;;1.23;0.90;;;14.90;66.20;;;;;;4413921;28;656174;-70
2022/04/07 08:39:47;;;;;;;0.60;0.43;;;14.80;64.30;;;;;;4391320;28;657906;-69
2022/04/07 08:42:36;;;;;;;2.03;1.10;;;14.60;65.20;;;;;;4414652;28;657309;-69
2022/04/07 08:45:32;;;;;;;1.60;0.90;;;15.00;64.60;;;;;;4381760;28;657681;-70
2022/04/07 08:48:20;;;;;;;1.10;1.00;;;14.70;65.60;;;;;;4378659;28;657154;-69
2022/04/07 08:51:07;;;;;;;0.87;0.60;;;14.40;65.80;;;;;;4376376;28;657752;-70
2022/04/07 08:53:54;;;;;;;1.87;0.87;;;14.70;66.00;;;;;;4394453;28;656793;-69
2022/04/07 08:56:42;;;;;;;1.60;0.90;;;14.60;65.40;;;;;;4376285;28;656572;-69
2022/04/07 08:59:30;;;;;;;3.57;1.27;;;14.30;66.40;;;;;;4402998;28;656852;-69
2022/04/07 09:02:18;;;;;;;3.17;1.27;;;14.40;68.70;;;;;;4388845;28;657843;-69
2022/04/07 09:05:10;;;;;;;4.57;1.50;;;14.60;68.30;;;;;;4395019;28;656354;-70
2022/04/07 09:07:58;;;;;;;1.35;0.80;;;14.40;67.50;;;;;;4383135;28;657829;-69
2022/04/07 09:10:47;;;;;;;0.87;0.60;;;14.20;68.70;;;;;;4379782;28;656418;-69
2022/04/07 09:13:35;;;;;;;3.50;1.10;;;14.10;68.40;;;;;;4396698;28;657264;-69
2022/04/07 09:16:24;;;;;;;3.43;1.40;;;13.90;68.20;;;;;;4387161;28;657408;-70
2022/04/07 09:19:13;;;;;;;0.97;0.90;;;13.90;70.50;;;;;;4378783;28;656601;-69
2022/04/07 09:22:07;;;;;;;2.75;0.85;;;13.90;69.30;;;;;;4381713;28;657403;-70
2022/04/07 09:24:54;;;;;;;1.13;0.87;;;14.10;70.30;;;;;;4367539;28;657036;-69
2022/04/07 09:27:42;;;;;;;2.27;1.20;;;13.90;69.10;;;;;;4373640;28;656929;-69
2022/04/07 09:30:37;;;;;;;4.63;1.70;;;13.80;69.40;;;;;;4393903;28;656826;-69
2022/04/07 09:33:26;;;;;;;4.23;2.00;;;14.10;70.30;;;;;;4376248;28;656965;-69
2022/04/07 09:36:19;;;;;;;4.00;2.00;;;14.20;72.40;;;;;;4372339;28;656363;-69
2022/04/07 09:39:12;;;;;;;4.17;2.40;;;14.60;71.40;;;;;;4378725;28;656819;-69
2022/04/07 09:42:15;;;;;;;3.03;1.87;;;14.50;68.90;;;;;;4393711;28;656560;-69
2022/04/07 09:45:03;;;;;;;3.47;2.00;;;14.30;71.60;;;;;;4375968;28;656732;-69
2022/04/07 09:47:58;;;;;;;3.73;1.87;;;14.30;71.80;;;;;;4393081;28;656926;-69
2022/04/07 09:51:05;;;;;;;3.00;1.63;;;14.30;70.40;;;;;;4401557;28;656843;-69
2022/04/07 09:53:55;;;;;;;1.27;1.00;;;14.10;72.00;;;;;;4359329;28;657118;-69
2022/04/07 09:56:42;;;;;;;3.10;1.47;;;13.90;72.50;;;;;;4390180;28;658276;-70
2022/04/07 09:59:30;;;;;;;1.83;1.67;;;14.00;71.00;;;;;;4402962;28;656497;-69
2022/04/07 10:02:18;;;;;;;5.17;1.40;;;14.40;71.90;;;;;;4400213;28;657622;-70
2022/04/07 10:05:07;;;;;;;3.87;1.70;;;14.80;70.50;;;;;;4386481;28;656539;-69
2022/04/07 10:07:56;;;;;;;3.67;1.50;;;15.60;67.50;;;;;;4414759;28;656939;-70
2022/04/07 10:10:43;;;;;;;4.10;1.90;;;15.60;68.30;;;;;;4389425;28;656924;-70
2022/04/07 10:13:30;;;;;;;3.57;1.90;;;14.80;69.80;;;;;;4383645;28;656861;-70
2022/04/07 10:16:18;;;;;;;2.97;1.70;;;14.90;73.40;;;;;;4411272;28;656755;-69
2022/04/07 10:19:06;;;;;;;4.10;1.80;;;15.20;68.90;;;;;;4388696;28;656665;-70
2022/04/07 10:22:02;;;;;;;2.70;1.80;;;15.20;68.40;;;;;;4407897;28;656592;-69
2022/04/07 10:24:52;;;;;;;4.28;2.22;;;14.80;69.70;;;;;;4389604;28;656846;-70
2022/04/07 10:27:41;;;;;;;3.17;1.23;;;15.60;67.70;;;;;;4389451;28;657140;-70
2022/04/07 10:30:29;;;;;;;2.87;1.07;;;15.90;64.60;;;;;;4389145;28;657576;-70
2022/04/07 10:33:41;;;;;;;3.17;1.30;;;15.80;63.60;;;;;;4393082;28;656708;-69
2022/04/07 10:36:37;;;;;;;2.43;1.30;;;15.50;65.90;;;;;;4388147;28;657077;-70
2022/04/07 10:39:26;;;;;;;4.20;1.47;;;16.00;66.70;;;;;;4388351;28;656639;-71
2022/04/07 10:42:15;;;;;;;3.03;1.50;;;15.70;65.00;;;;;;4381344;28;657612;-70
2022/04/07 10:45:05;;;;;;;1.43;1.23;;;16.50;66.30;;;;;;4388814;28;657720;-71
2022/04/07 10:48:19;;;;;;;1.07;0.97;;;15.70;61.80;;;;;;4382309;28;657673;-69
2022/04/07 10:51:07;;;;;;;1.43;0.73;;;15.40;65.00;;;;;;4367441;28;656637;-70
2022/04/07 10:54:02;;;;;;;2.57;0.77;;;15.80;63.00;;;;;;4400575;28;656718;-70
2022/04/07 10:56:50;;;;;;;3.77;1.20;;;15.80;62.30;;;;;;4391337;28;656890;-70
2022/04/07 10:59:47;;;;;;;1.80;1.00;;;15.50;65.40;;;;;;4386008;28;657224;-70
2022/04/07 11:02:35;;;;;;;4.43;1.40;;;16.00;65.90;;;;;;4391444;28;657126;-70
2022/04/07 11:05:25;;;;;;;0.90;0.90;;;15.60;64.60;;;;;;4405846;28;657198;-70
2022/04/07 11:08:12;;;;;;;1.23;0.83;;;16.00;64.10;;;;;;4385854;28;657842;-70
2022/04/07 11:11:02;;;;;;;1.73;0.87;;;15.50;64.80;;;;;;4410161;28;656535;-70
2022/04/07 11:13:58;;;;;;;1.17;0.70;;;15.40;63.90;;;;;;4386341;28;656206;-70
2022/04/07 11:17:11;;;;;;;0.80;0.80;;;15.50;63.30;;;;;;4391423;28;656770;-70
2022/04/07 11:20:06;;;;;;;3.13;1.03;;;15.60;64.30;;;;;;4384366;28;656923;-70
2022/04/07 11:22:54;;;;;;;3.40;1.00;;;15.60;64.30;;;;;;4391700;28;658433;-70
2022/04/07 11:25:42;;;;;;;0.70;0.70;;;15.40;65.80;;;;;;4403094;28;656700;-69
2022/04/07 11:28:32;;;;;;;3.50;1.20;;;15.20;64.00;;;;;;4417040;28;657524;-69
2022/04/07 11:32:07;;;;;;;3.03;1.40;;;14.90;65.90;;;;;;4410651;28;657202;-69
2022/04/07 11:34:58;;;;;;;2.15;1.10;;;15.00;67.30;;;;;;4383941;28;657493;-69
2022/04/07 11:37:46;;;;;;;1.67;0.90;;;15.00;66.70;;;;;;4392677;28;656747;-70
2022/04/07 11:40:33;;;;;;;5.53;1.17;;;15.00;66.80;;;;;;4421260;28;656793;-70
2022/04/07 11:43:22;;;;;;;3.37;1.53;;;16.30;63.90;;;;;;4389537;28;656803;-70
2022/04/07 11:46:09;;;;;;;2.43;1.33;;;16.40;61.80;;;;;;4392600;28;656831;-70
2022/04/07 11:48:56;;;;;;;2.60;1.65;;;16.20;63.00;;;;;;4371235;28;656300;-70
2022/04/07 11:51:46;;;;;;;6.93;2.00;;;16.60;64.30;;;;;;4378811;28;657237;-70
2022/04/07 11:54:36;;;;;;;2.50;1.73;;;16.40;61.90;;;;;;4361709;28;657072;-71
2022/04/07 11:57:28;;;;;;;3.07;1.53;;;16.60;62.40;;;;;;4375504;28;656895;-70
2022/04/07 12:00:16;;;;;;;1.50;1.30;;;16.90;65.30;;;;;;4393702;28;656104;-70
2022/04/07 12:03:04;;;;;;;0.90;0.73;;;17.10;58.20;;;;;;4407440;28;658395;-70
2022/04/07 12:05:52;;;;;;;2.90;1.53;;;17.70;57.20;;;;;;4389318;28;656316;-70
2022/04/07 12:08:41;;;;;;;1.93;1.27;;;17.70;58.50;;;;;;4404729;28;656537;-70
2022/04/07 12:11:30;;;;;;;2.83;1.60;;;16.80;59.30;;;;;;4384005;28;657573;-70
2022/04/07 12:14:21;;;;;;;1.90;1.37;;;16.80;61.60;;;;;;4375706;28;656977;-70
2022/04/07 12:17:09;;;;;;;2.50;1.67;;;17.00;61.30;;;;;;4375396;28;658042;-70
2022/04/07 12:19:57;;;;;;;2.40;1.20;;;16.80;58.40;;;;;;4384296;28;656518;-70
2022/04/07 12:22:44;;;;;;;3.50;1.33;;;16.50;58.80;;;;;;4392798;28;656728;-70
2022/04/07 12:25:33;;;;;;;3.67;1.57;;;16.60;59.20;;;;;;4369598;28;656775;-70
2022/04/07 12:28:20;;;;;;;1.87;1.30;;;17.00;58.80;;;;;;4383765;28;656836;-70
2022/04/07 12:31:14;;;;;;;2.10;1.40;;;17.00;58.30;;;;;;4397517;28;657737;-69
2022/04/07 12:34:07;;;;;;;2.33;1.00;;;16.40;60.00;;;;;;4372892;28;656574;-69
2022/04/07 12:36:55;;;;;;;1.90;1.03;;;16.00;60.10;;;;;;4372168;28;658441;-69
2022/04/07 12:39:44;;;;;;;3.47;1.50;;;16.00;62.10;;;;;;4368697;28;657847;-70
2022/04/07 12:42:32;;;;;;;2.43;1.57;;;16.30;61.70;;;;;;4372005;28;657012;-69
2022/04/07 12:45:20;;;;;;;2.27;1.57;;;16.50;61.20;;;;;;4394978;28;657506;-70
2022/04/07 12:48:10;;;;;;;1.20;1.10;;;16.40;61.20;;;;;;4366826;28;657067;-69
2022/04/07 12:50:57;;;;;;;4.93;1.40;;;16.20;61.60;;;;;;4365357;28;656976;-70
2022/04/07 12:53:45;;;;;;;1.80;1.40;;;16.50;61.40;;;;;;4392551;28;656856;-70
2022/04/07 12:56:33;;;;;;;6.23;1.30;;;17.70;64.20;;;;;;4392277;28;658257;-70
2022/04/07 12:59:22;;;;;;;0.87;0.83;;;18.00;58.30;;;;;;4383330;28;656763;-70
2022/04/07 13:02:09;;;;;;;1.50;1.20;;;18.10;57.70;;;;;;4389412;28;657309;-70
2022/04/07 13:04:56;;;;;;;2.20;1.40;;;17.40;55.60;;;;;;4370024;28;656690;-70
2022/04/07 13:07:44;;;;;;;1.83;1.30;;;17.20;57.10;;;;;;4401380;28;656507;-70
2022/04/07 13:10:31;;;;;;;8.43;1.70;;;17.90;56.10;;;;;;4382695;28;657292;-70
2022/04/07 13:13:19;;;;;;;2.73;1.60;;;17.90;56.50;;;;;;4404160;28;657059;-70
2022/04/07 13:16:08;;;;;;;3.67;1.77;;;17.90;54.60;;;;;;4381755;28;656684;-70
2022/04/07 13:18:55;;;;;;;3.10;1.90;;;18.20;56.80;;;;;;4390178;28;656708;-70
2022/04/07 13:21:43;;;;;;;2.53;1.20;;;18.00;54.60;;;;;;4395177;28;657366;-71
2022/04/07 13:24:30;;;;;;;1.30;1.17;;;17.60;55.80;;;;;;4378718;28;656240;-69
2022/04/07 13:27:18;;;;;;;2.33;1.57;;;17.80;56.00;;;;;;4383354;28;657713;-70
2022/04/07 13:30:06;;;;;;;3.33;2.30;;;17.20;56.80;;;;;;4387125;28;656725;-70
2022/04/07 13:32:55;;;;;;;2.73;1.60;;;17.60;57.00;;;;;;4397519;28;656376;-69
2022/04/07 13:35:43;;;;;;;3.53;1.73;;;17.10;54.80;;;;;;4374254;28;657163;-69
2022/04/07 13:38:32;;;;;;;4.43;2.33;;;16.20;56.90;;;;;;4371824;28;656432;-69
2022/04/07 13:41:19;;;;;;;2.83;2.00;;;15.80;58.70;;;;;;4378415;28;656845;-69
2022/04/07 13:44:06;;;;;;;3.03;2.00;;;15.70;59.40;;;;;;4372269;28;657353;-69
2022/04/07 13:46:54;;;;;;;3.07;1.80;;;15.80;60.50;;;;;;4401954;28;656419;-69
2022/04/07 13:49:43;;;;;;;3.47;2.50;;;15.70;59.60;;;;;;4386372;28;656716;-69
2022/04/07 13:52:30;;;;;;;3.07;2.00;;;16.10;60.50;;;;;;4408815;28;657576;-69
2022/04/07 13:55:18;;;;;;;3.00;2.20;;;17.10;59.20;;;;;;4423024;28;657533;-70
2022/04/07 13:58:06;;;;;;;4.33;1.90;;;18.00;56.40;;;;;;4401588;28;657179;-70
2022/04/07 14:00:53;;;;;;;5.13;2.23;;;18.10;55.30;;;;;;4419519;28;657927;-70
2022/04/07 14:03:40;;;;;;;2.60;1.50;;;18.10;55.20;;;;;;4394013;28;656233;-70
2022/04/07 14:06:29;;;;;;;2.80;1.67;;;17.80;55.40;;;;;;4406471;28;657633;-70
2022/04/07 14:09:16;;;;;;;4.67;1.90;;;17.60;55.30;;;;;;4389449;28;656783;-70
2022/04/07 14:12:04;;;;;;;3.43;2.20;;;17.40;55.80;;;;;;4423271;28;657180;-69
2022/04/07 14:14:52;;;;;;;2.03;1.23;;;16.50;56.20;;;;;;4382460;28;658328;-69
2022/04/07 14:17:40;;;;;;;3.50;1.77;;;16.80;56.30;;;;;;4410707;28;655817;-69
2022/04/07 14:20:27;;;;;;;2.40;1.17;;;17.60;54.40;;;;;;4379731;28;656908;-70
2022/04/07 14:23:17;;;;;;;3.43;1.37;;;17.60;52.20;;;;;;4400967;28;656565;-69
2022/04/07 14:26:05;;;;;;;1.97;1.40;;;18.10;53.10;;;;;;4404703;28;656502;-70